Time;durP1;ratioP1;P1;durP2;ratioP2;P2;SDS_P1;SDS_P2;PMS_P1;PMS_P2;Temp;Humidity;BMP_temperature;BMP_pressure;BME280_temperature;BME280_humidity;BME280_pressure;Samples;Min_cycle;Max_cycle;Signal;HPM_P1;HPM_P2
2021/10/17 00:00:23;;;;;;;999.30;915.00;;;3.40;99.90;;;;;;5015353;28;20457;-85
2021/10/17 00:02:50;;;;;;;998.23;912.83;;;3.30;99.90;;;;;;5014708;28;20536;-86
2021/10/17 00:05:19;;;;;;;999.93;914.43;;;3.40;99.90;;;;;;5015116;28;20511;-85
2021/10/17 00:07:47;;;;;;;989.17;903.27;;;3.60;99.90;;;;;;5014986;28;20825;-85
2021/10/17 00:10:16;;;;;;;990.30;904.00;;;3.50;99.90;;;;;;5015053;28;20467;-85
2021/10/17 00:12:43;;;;;;;994.80;908.73;;;3.70;99.90;;;;;;5014104;28;20507;-86
2021/10/17 00:15:14;;;;;;;1004.40;916.80;;;3.70;99.90;;;;;;5015098;28;20521;-86
2021/10/17 00:17:42;;;;;;;991.10;904.03;;;3.70;99.90;;;;;;5014966;28;20519;-85
2021/10/17 00:20:11;;;;;;;993.37;905.37;;;3.60;99.90;;;;;;5014210;28;20472;-85
2021/10/17 00:22:38;;;;;;;1003.80;915.87;;;3.70;99.90;;;;;;5014839;28;20450;-85
2021/10/17 00:25:07;;;;;;;1000.43;912.20;;;3.70;99.90;;;;;;5014723;28;20511;-85
2021/10/17 00:27:34;;;;;;;1007.40;918.53;;;3.80;99.90;;;;;;5013650;28;20488;-85
2021/10/17 00:30:01;;;;;;;1009.70;921.73;;;3.80;99.90;;;;;;5014640;28;20461;-85
2021/10/17 00:32:29;;;;;;;1021.80;933.13;;;3.60;99.90;;;;;;5014601;28;20449;-85
2021/10/17 00:34:57;;;;;;;1025.50;936.30;;;3.40;99.90;;;;;;5014227;28;20511;-85
2021/10/17 00:37:27;;;;;;;1024.10;934.90;;;3.40;99.90;;;;;;5014523;28;20539;-85
2021/10/17 00:39:53;;;;;;;1017.83;928.07;;;3.60;99.90;;;;;;5014525;28;20543;-85
2021/10/17 00:42:22;;;;;;;1010.20;923.00;;;3.50;99.90;;;;;;5014241;28;20496;-84
2021/10/17 00:44:55;;;;;;;1000.07;914.93;;;3.60;99.90;;;;;;5013299;28;20859;-84
2021/10/17 00:47:22;;;;;;;1001.67;915.67;;;3.50;99.90;;;;;;5014427;28;20540;-85
2021/10/17 00:49:50;;;;;;;1007.30;921.50;;;3.40;99.90;;;;;;5014184;28;20461;-85
2021/10/17 00:52:17;;;;;;;1023.03;930.30;;;3.20;99.90;;;;;;5014143;28;20457;-85
2021/10/17 00:54:45;;;;;;;1027.63;934.33;;;3.40;99.90;;;;;;5013989;28;21015;-85
2021/10/17 00:57:12;;;;;;;1019.17;927.80;;;3.60;99.90;;;;;;5014031;28;20450;-85
2021/10/17 00:59:39;;;;;;;1024.97;933.73;;;3.60;99.90;;;;;;5013171;28;20481;-84
2021/10/17 01:02:06;;;;;;;1024.00;933.60;;;3.70;99.90;;;;;;5013902;28;20845;-85
2021/10/17 01:04:33;;;;;;;1021.47;931.27;;;3.70;99.90;;;;;;5013963;28;20552;-85
2021/10/17 01:07:02;;;;;;;1019.73;930.33;;;3.70;99.90;;;;;;5013815;28;20481;-85
2021/10/17 01:09:31;;;;;;;1021.83;933.30;;;3.90;99.90;;;;;;5013983;28;20457;-85
2021/10/17 01:11:58;;;;;;;1028.57;939.30;;;4.00;99.90;;;;;;5013856;28;20461;-85
2021/10/17 01:14:25;;;;;;;1023.80;933.97;;;4.00;99.90;;;;;;5012655;28;20484;-84
2021/10/17 01:16:59;;;;;;;1020.97;931.20;;;3.80;99.90;;;;;;5013827;28;20453;-85
2021/10/17 01:19:26;;;;;;;1028.30;939.30;;;3.90;99.90;;;;;;5013781;28;20552;-85
2021/10/17 01:21:55;;;;;;;1025.43;936.50;;;3.80;99.90;;;;;;5013892;28;20458;-85
2021/10/17 01:24:22;;;;;;;1015.97;926.70;;;3.90;99.90;;;;;;5013605;28;20531;-85
2021/10/17 01:26:49;;;;;;;1012.97;923.83;;;3.80;99.90;;;;;;5013820;28;20524;-85
2021/10/17 01:29:16;;;;;;;996.07;911.20;;;3.70;99.90;;;;;;5012380;28;20507;-85
2021/10/17 01:31:51;;;;;;;1017.60;930.53;;;3.60;99.90;;;;;;5013490;28;20479;-85
2021/10/17 01:34:19;;;;;;;1011.87;925.17;;;3.40;99.90;;;;;;5013443;28;20542;-85
2021/10/17 01:36:46;;;;;;;1022.83;932.87;;;3.30;99.90;;;;;;5013486;28;20461;-85
2021/10/17 01:39:16;;;;;;;1022.17;932.17;;;3.10;99.90;;;;;;5013546;28;20991;-85
2021/10/17 01:41:44;;;;;;;1021.03;929.40;;;3.10;99.90;;;;;;5013406;28;20549;-85
2021/10/17 01:44:12;;;;;;;1020.70;928.30;;;3.10;99.90;;;;;;5012354;28;20866;-85
2021/10/17 01:46:40;;;;;;;1018.70;926.10;;;3.20;99.90;;;;;;5013252;28;20465;-85
2021/10/17 01:49:10;;;;;;;1013.47;922.00;;;3.20;99.90;;;;;;5013433;28;20486;-85
2021/10/17 01:51:37;;;;;;;1015.57;924.60;;;3.20;99.90;;;;;;5013219;28;20492;-85
2021/10/17 01:54:05;;;;;;;1013.93;923.83;;;3.30;99.90;;;;;;5013065;28;20459;-85
2021/10/17 01:56:33;;;;;;;1017.30;928.70;;;3.00;99.90;;;;;;5013098;28;20511;-85
2021/10/17 01:59:00;;;;;;;1029.33;941.97;;;3.00;99.90;;;;;;5012127;28;20461;-85
2021/10/17 02:01:27;;;;;;;994.03;910.17;;;2.80;99.90;;;;;;5013150;28;20481;-85
2021/10/17 02:03:55;;;;;;;1003.83;918.63;;;2.70;99.90;;;;;;5013085;28;21236;-85
2021/10/17 02:06:21;;;;;;;1007.43;921.30;;;2.70;99.90;;;;;;5013120;28;20815;-84
2021/10/17 02:08:48;;;;;;;1008.07;922.57;;;2.60;99.90;;;;;;5012916;28;20840;-85
2021/10/17 02:11:15;;;;;;;1014.83;927.47;;;2.50;99.90;;;;;;5013014;28;20450;-85
2021/10/17 02:13:44;;;;;;;1013.23;925.73;;;2.30;99.90;;;;;;5012043;28;20457;-85
2021/10/17 02:16:12;;;;;;;1015.60;927.43;;;2.40;99.90;;;;;;5012856;28;20576;-85
2021/10/17 02:18:38;;;;;;;1018.23;928.13;;;2.30;99.90;;;;;;5012994;28;20497;-84
2021/10/17 02:21:06;;;;;;;1008.47;918.47;;;2.20;99.90;;;;;;5012961;28;20449;-85
2021/10/17 02:23:34;;;;;;;1011.37;919.73;;;2.20;99.90;;;;;;5012872;28;20976;-85
2021/10/17 02:26:02;;;;;;;1019.10;929.23;;;2.20;99.90;;;;;;5012702;28;20579;-84
2021/10/17 02:28:29;;;;;;;1028.47;937.00;;;2.20;99.90;;;;;;5012029;28;20457;-83
2021/10/17 02:30:57;;;;;;;1021.80;930.03;;;2.20;99.90;;;;;;5012894;28;20548;-85
2021/10/17 02:33:24;;;;;;;1037.67;944.70;;;2.30;99.90;;;;;;5012794;28;20489;-85
2021/10/17 02:35:51;;;;;;;1028.33;936.83;;;2.30;99.90;;;;;;5012637;28;20539;-84
2021/10/17 02:38:18;;;;;;;1018.60;928.47;;;2.30;99.90;;;;;;5012794;28;20489;-84
2021/10/17 02:40:45;;;;;;;1015.73;925.73;;;2.20;99.90;;;;;;5012828;28;20456;-84
2021/10/17 02:43:12;;;;;;;1025.07;935.27;;;2.20;99.90;;;;;;5014343;28;20493;-85
2021/10/17 02:45:39;;;;;;;1014.80;924.53;;;2.30;99.90;;;;;;5016577;28;20497;-84
2021/10/17 02:48:07;;;;;;;1019.10;927.47;;;2.30;99.90;;;;;;5016447;28;20890;-85
2021/10/17 02:50:34;;;;;;;1026.90;933.73;;;2.40;99.90;;;;;;5016389;28;20499;-84
2021/10/17 02:53:05;;;;;;;1019.80;926.23;;;2.40;99.90;;;;;;5016478;28;20532;-84
2021/10/17 02:55:35;;;;;;;1014.00;921.30;;;2.60;99.90;;;;;;5016355;28;20483;-85
2021/10/17 02:58:01;;;;;;;1014.30;922.27;;;2.60;99.90;;;;;;5015260;28;20467;-84
2021/10/17 03:00:28;;;;;;;1015.80;924.83;;;2.40;99.90;;;;;;5016363;28;20457;-85
2021/10/17 03:02:55;;;;;;;1028.10;935.80;;;2.40;99.90;;;;;;5015836;28;20572;-85
2021/10/17 03:05:23;;;;;;;1026.77;934.73;;;2.50;99.90;;;;;;5016332;28;20455;-85
2021/10/17 03:07:50;;;;;;;1024.47;932.13;;;2.50;99.90;;;;;;5016192;28;20467;-84
2021/10/17 03:10:17;;;;;;;1023.07;929.87;;;2.50;99.90;;;;;;5016228;28;20526;-85
2021/10/17 03:12:44;;;;;;;1026.80;933.13;;;2.60;99.90;;;;;;5015212;28;20527;-84
2021/10/17 03:15:11;;;;;;;1026.00;932.80;;;2.70;99.90;;;;;;5016042;28;20504;-84
2021/10/17 03:17:43;;;;;;;1034.63;942.30;;;2.70;99.90;;;;;;5015919;28;20457;-85
2021/10/17 03:20:13;;;;;;;1045.37;952.33;;;2.70;99.90;;;;;;5015949;28;20453;-85
2021/10/17 03:22:44;;;;;;;1035.83;943.20;;;2.60;99.90;;;;;;5016241;28;20511;-85
2021/10/17 03:25:11;;;;;;;1046.10;953.07;;;2.70;99.90;;;;;;5015834;28;20477;-85
2021/10/17 03:27:38;;;;;;;1034.77;942.37;;;2.70;99.90;;;;;;5014820;28;20441;-85
2021/10/17 03:30:06;;;;;;;1046.67;954.70;;;2.60;99.90;;;;;;5015635;28;20532;-85
2021/10/17 03:32:33;;;;;;;1043.20;950.43;;;2.60;99.90;;;;;;5015764;28;20472;-85
2021/10/17 03:35:03;;;;;;;1045.23;951.53;;;2.60;99.90;;;;;;5015736;28;20499;-85
2021/10/17 03:37:31;;;;;;;1029.57;935.80;;;2.80;99.90;;;;;;5015722;28;20837;-85
2021/10/17 03:40:03;;;;;;;1035.63;941.27;;;2.90;99.90;;;;;;5015240;28;20504;-85
2021/10/17 03:42:30;;;;;;;1039.03;943.77;;;2.80;99.90;;;;;;5015060;28;20453;-85
2021/10/17 03:44:59;;;;;;;1043.47;946.20;;;2.80;99.90;;;;;;5015403;28;20811;-85
2021/10/17 03:47:26;;;;;;;1041.87;946.93;;;3.00;99.90;;;;;;5016133;28;20552;-85
2021/10/17 03:49:53;;;;;;;1042.43;947.70;;;3.00;99.90;;;;;;5015449;28;20464;-85
2021/10/17 03:52:20;;;;;;;1044.17;948.97;;;2.80;99.90;;;;;;5015300;28;20473;-87
2021/10/17 03:54:51;;;;;;;1041.10;945.07;;;2.80;99.90;;;;;;5015235;28;20552;-87
2021/10/17 03:57:24;;;;;;;1064.57;966.97;;;2.90;99.90;;;;;;5015229;28;20465;-87
2021/10/17 03:59:51;;;;;;;1058.57;963.80;;;3.00;99.90;;;;;;5014272;28;20870;-86
2021/10/17 04:02:18;;;;;;;1045.87;951.00;;;3.00;99.90;;;;;;5015536;28;20867;-85
2021/10/17 04:04:45;;;;;;;1044.50;950.83;;;3.10;99.90;;;;;;5015259;28;20500;-83
2021/10/17 04:07:12;;;;;;;1054.97;961.30;;;2.90;99.90;;;;;;5015146;28;20460;-86
2021/10/17 04:09:41;;;;;;;1072.17;977.87;;;2.90;99.90;;;;;;5015051;28;20544;-86
2021/10/17 04:12:08;;;;;;;1063.77;968.33;;;2.80;99.90;;;;;;5015267;28;20484;-85
2021/10/17 04:14:38;;;;;;;1056.17;962.57;;;2.60;99.90;;;;;;5014017;28;20872;-85
2021/10/17 04:17:05;;;;;;;1053.70;960.40;;;2.60;99.90;;;;;;5014812;28;20991;-84
2021/10/17 04:19:34;;;;;;;1061.23;968.57;;;2.50;99.90;;;;;;5015126;28;20524;-85
2021/10/17 04:22:01;;;;;;;1055.53;963.30;;;2.40;99.90;;;;;;5014806;28;20511;-90
2021/10/17 04:24:28;;;;;;;1062.73;971.00;;;2.30;99.90;;;;;;5019750;28;20516;-83
2021/10/17 04:26:55;;;;;;;1055.53;963.03;;;2.20;99.90;;;;;;5034538;28;20947;-87
2021/10/17 04:29:22;;;;;;;1060.20;966.33;;;2.30;99.90;;;;;;5033519;28;20487;-83
2021/10/17 04:31:50;;;;;;;1059.83;966.50;;;2.20;99.90;;;;;;5034780;28;20487;-86
2021/10/17 04:34:17;;;;;;;1069.17;975.40;;;2.10;99.90;;;;;;5034358;28;20863;-88
2021/10/17 04:36:43;;;;;;;1075.60;980.80;;;2.10;99.90;;;;;;5034270;28;20492;-89
2021/10/17 04:39:12;;;;;;;1055.63;963.17;;;2.00;99.90;;;;;;5020481;28;20449;-84
2021/10/17 04:41:39;;;;;;;1063.67;969.30;;;2.10;99.90;;;;;;5014409;28;20512;-86
2021/10/17 04:44:06;;;;;;;1071.07;978.30;;;2.20;99.90;;;;;;5013360;28;20975;-86
2021/10/17 04:46:33;;;;;;;1061.27;968.20;;;2.30;99.90;;;;;;5014451;28;20481;-85
2021/10/17 04:49:05;;;;;;;1072.20;978.60;;;2.30;99.90;;;;;;5008313;28;20540;-86
2021/10/17 04:51:32;;;;;;;1060.13;966.50;;;2.20;99.90;;;;;;5014197;28;20487;-83
2021/10/17 04:54:03;;;;;;;1055.77;962.87;;;2.20;99.90;;;;;;5014503;28;20811;-83
2021/10/17 04:56:30;;;;;;;1073.40;980.37;;;2.10;99.90;;;;;;5024170;28;20480;-85
2021/10/17 04:58:58;;;;;;;1073.80;981.07;;;2.10;99.90;;;;;;5032801;28;20456;-85
2021/10/17 05:01:27;;;;;;;1071.23;977.70;;;2.20;99.90;;;;;;5024389;28;20469;-84
2021/10/17 05:04:08;;;;;;;1072.57;978.80;;;2.10;99.90;;;;;;5014075;28;20544;-90
2021/10/17 05:06:39;;;;;;;1063.17;970.40;;;2.00;99.90;;;;;;5013821;28;20458;-84
2021/10/17 05:09:25;;;;;;;1066.07;973.60;;;2.20;99.90;;;;;;5013963;28;20469;-83
2021/10/17 05:11:57;;;;;;;1071.53;977.83;;;2.10;99.90;;;;;;5013943;28;20457;-84
2021/10/17 05:14:28;;;;;;;1077.30;983.20;;;2.20;99.90;;;;;;5012975;28;20458;-86
2021/10/17 05:16:56;;;;;;;1064.23;972.07;;;2.20;99.90;;;;;;5013685;28;20496;-85
2021/10/17 05:19:26;;;;;;;1068.37;975.63;;;2.10;99.90;;;;;;5013969;28;20457;-85
2021/10/17 05:22:04;;;;;;;1067.43;973.83;;;2.10;99.90;;;;;;5014099;28;20540;-84
2021/10/17 05:24:46;;;;;;;1078.93;986.03;;;2.00;99.90;;;;;;5013546;28;20485;-84
2021/10/17 05:27:16;;;;;;;1075.83;983.30;;;2.10;99.90;;;;;;5007653;28;20453;-84
2021/10/17 05:29:43;;;;;;;1065.70;974.53;;;2.10;99.90;;;;;;5012506;28;20453;-86
2021/10/17 05:32:23;;;;;;;;;;;;;;;;;;;;;
2021/10/17 05:34:53;;;;;;;1068.87;977.33;;;2.10;99.90;;;;;;5013650;28;20453;-86
2021/10/17 05:37:22;;;;;;;1058.40;966.70;;;2.10;99.90;;;;;;5013270;28;20492;-85
2021/10/17 05:39:49;;;;;;;1058.27;967.57;;;2.20;99.90;;;;;;5013572;28;20450;-85
2021/10/17 05:42:15;;;;;;;1052.67;961.73;;;2.10;99.90;;;;;;5013472;28;20499;-85
2021/10/17 05:44:42;;;;;;;1044.67;953.80;;;2.10;99.90;;;;;;5012297;28;20512;-87
2021/10/17 05:47:39;;;;;;;1048.00;957.40;;;2.10;99.90;;;;;;5013465;28;20493;-86
2021/10/17 05:50:07;;;;;;;1062.97;971.17;;;1.90;99.90;;;;;;5027380;28;20506;-86
2021/10/17 05:52:35;;;;;;;1045.17;953.07;;;2.10;99.90;;;;;;4982187;28;20496;-87
2021/10/17 05:55:05;;;;;;;1048.50;956.80;;;2.10;99.90;;;;;;5033219;28;20483;-87
2021/10/17 05:57:36;;;;;;;1046.07;955.50;;;2.00;99.90;;;;;;5022902;28;20513;-86
2021/10/17 06:00:12;;;;;;;1066.70;974.73;;;1.90;99.90;;;;;;5013146;28;20973;-86
2021/10/17 06:02:45;;;;;;;1067.00;974.20;;;1.90;99.90;;;;;;5012664;28;20468;-86
2021/10/17 06:05:14;;;;;;;1077.57;983.70;;;1.80;99.90;;;;;;5007262;28;20448;-86
2021/10/17 06:07:42;;;;;;;1065.27;971.87;;;2.00;99.90;;;;;;5013229;28;20944;-86
2021/10/17 06:10:13;;;;;;;1072.93;979.63;;;2.10;99.90;;;;;;5013165;28;20511;-86
2021/10/17 06:13:04;;;;;;;1067.00;973.70;;;2.40;99.90;;;;;;5011846;28;20449;-87
2021/10/17 06:15:36;;;;;;;1059.70;966.60;;;2.70;99.90;;;;;;5012933;28;20489;-86
2021/10/17 06:18:02;;;;;;;1064.40;972.10;;;2.70;99.90;;;;;;5012292;28;20453;-90
2021/10/17 06:20:29;;;;;;;1053.10;960.67;;;2.90;99.90;;;;;;5013178;28;20540;-86
2021/10/17 06:22:58;;;;;;;1052.67;960.37;;;2.90;99.90;;;;;;5012840;28;20464;-88
2021/10/17 06:25:24;;;;;;;1051.87;959.10;;;3.00;99.90;;;;;;5012611;28;20485;-87
2021/10/17 06:27:51;;;;;;;1048.07;957.20;;;3.00;99.90;;;;;;5011791;28;20768;-87
2021/10/17 06:30:18;;;;;;;1040.17;949.30;;;3.00;99.90;;;;;;5013081;28;20457;-85
2021/10/17 06:32:45;;;;;;;1034.13;944.10;;;3.00;99.90;;;;;;5012774;28;20453;-86
2021/10/17 06:35:13;;;;;;;1028.20;937.20;;;3.10;99.90;;;;;;5012888;28;20488;-86
2021/10/17 06:37:40;;;;;;;1021.67;931.17;;;3.20;99.90;;;;;;5012738;28;20495;-86
2021/10/17 06:40:09;;;;;;;1025.30;934.63;;;3.30;99.90;;;;;;5012634;28;20972;-86
2021/10/17 06:42:36;;;;;;;1026.90;937.40;;;3.40;99.90;;;;;;4961078;28;20457;-87
2021/10/17 06:45:03;;;;;;;1019.50;928.20;;;3.40;99.90;;;;;;5012643;28;20500;-85
2021/10/17 06:47:30;;;;;;;1021.67;931.00;;;3.50;99.90;;;;;;5012740;28;20532;-88
2021/10/17 06:49:57;;;;;;;1013.83;922.10;;;3.70;99.90;;;;;;5012725;28;20457;-89
2021/10/17 06:52:23;;;;;;;1021.37;928.57;;;3.70;99.90;;;;;;5012731;28;20457;-88
2021/10/17 06:54:50;;;;;;;1023.30;929.90;;;3.90;99.90;;;;;;5012535;28;20548;-86
2021/10/17 06:57:20;;;;;;;1021.83;928.63;;;4.00;99.90;;;;;;5012576;28;20484;-86
2021/10/17 06:59:49;;;;;;;1024.43;931.60;;;4.30;99.90;;;;;;5011535;28;20509;-90
2021/10/17 07:02:20;;;;;;;1006.27;912.50;;;4.50;99.90;;;;;;5012225;28;20464;-90
2021/10/17 07:04:50;;;;;;;998.57;906.87;;;4.60;99.90;;;;;;5012704;28;20455;-89
2021/10/17 07:07:18;;;;;;;981.60;891.73;;;4.70;99.90;;;;;;5012323;28;20495;-88
2021/10/17 07:09:44;;;;;;;977.80;887.87;;;4.80;99.90;;;;;;5012382;28;20458;-86
2021/10/17 07:12:11;;;;;;;971.80;882.00;;;4.90;99.90;;;;;;5012505;28;20961;-88
2021/10/17 07:14:40;;;;;;;970.53;880.77;;;5.10;99.90;;;;;;5011698;28;20453;-90
2021/10/17 07:17:06;;;;;;;977.27;887.43;;;5.20;99.90;;;;;;5012338;28;20524;-91
2021/10/17 07:19:34;;;;;;;980.00;889.70;;;5.40;99.90;;;;;;5012413;28;20457;-90
2021/10/17 07:22:01;;;;;;;1999.90;999.90;;;5.60;99.90;;;;;;5012866;28;20458;-89
2021/10/17 07:24:28;;;;;;;1999.90;999.90;;;5.60;99.90;;;;;;5012202;28;20546;-87
2021/10/17 07:26:55;;;;;;;1999.90;999.90;;;5.70;99.90;;;;;;5012419;28;20477;-87
2021/10/17 07:29:22;;;;;;;1999.90;999.90;;;5.90;99.90;;;;;;5014152;28;20461;-86
2021/10/17 07:31:50;;;;;;;1999.90;999.90;;;5.90;99.90;;;;;;5016059;28;20476;-88
2021/10/17 07:34:17;;;;;;;1999.90;999.90;;;6.10;99.90;;;;;;5015981;28;20468;-87
2021/10/17 07:36:44;;;;;;;1999.90;999.90;;;6.20;99.90;;;;;;5015870;28;20475;-88
2021/10/17 07:39:11;;;;;;;1999.90;999.90;;;6.40;99.90;;;;;;5015739;28;20491;-85
2021/10/17 07:41:39;;;;;;;1999.90;999.90;;;6.40;99.90;;;;;;5015632;28;20453;-89
2021/10/17 07:44:06;;;;;;;1999.90;999.90;;;6.60;99.90;;;;;;5011654;28;20857;-89
2021/10/17 07:46:39;;;;;;;1999.90;999.90;;;6.60;99.90;;;;;;5014684;28;20461;-91
2021/10/17 07:49:08;;;;;;;1999.90;999.90;;;6.50;99.90;;;;;;5014759;28;20460;-88
2021/10/17 07:51:37;;;;;;;941.67;855.33;;;6.70;99.90;;;;;;5014170;28;20453;-90
2021/10/17 07:54:04;;;;;;;938.33;851.60;;;6.70;99.90;;;;;;5015241;28;20571;-87
2021/10/17 07:56:34;;;;;;;917.40;832.47;;;7.00;99.90;;;;;;5015327;28;20839;-89
2021/10/17 07:59:01;;;;;;;906.33;824.30;;;7.20;99.90;;;;;;5014410;28;20537;-90
2021/10/17 08:01:28;;;;;;;908.10;828.23;;;7.30;99.90;;;;;;5015195;28;20508;-89
2021/10/17 08:03:55;;;;;;;841.27;758.43;;;7.50;99.90;;;;;;5015342;28;20496;-90
2021/10/17 08:06:25;;;;;;;827.13;760.20;;;7.60;99.90;;;;;;5017988;28;20999;-89
2021/10/17 08:08:52;;;;;;;821.40;757.33;;;7.80;99.90;;;;;;5015065;28;20552;-90
2021/10/17 08:11:19;;;;;;;814.37;750.83;;;8.00;99.90;;;;;;5015229;28;20461;-90
2021/10/17 08:13:46;;;;;;;785.00;730.90;;;8.30;99.90;;;;;;5016648;28;20457;-91
2021/10/17 08:16:14;;;;;;;720.80;676.90;;;8.40;99.90;;;;;;5017123;28;20485;-93
2021/10/17 08:18:41;;;;;;;701.27;659.57;;;8.40;99.90;;;;;;5015586;28;20495;-89
2021/10/17 08:21:08;;;;;;;676.90;638.27;;;8.50;99.90;;;;;;5015041;28;21007;-89
2021/10/17 08:23:36;;;;;;;583.57;552.57;;;8.70;99.90;;;;;;5012323;28;20461;-89
2021/10/17 08:26:03;;;;;;;646.87;610.60;;;8.90;99.90;;;;;;5012820;28;20508;-86
2021/10/17 08:28:30;;;;;;;362.53;345.20;;;8.90;99.90;;;;;;5012104;28;20468;-88
2021/10/17 08:31:00;;;;;;;369.13;351.70;;;9.20;99.90;;;;;;5024209;28;20531;-88
2021/10/17 08:33:27;;;;;;;252.47;239.80;;;9.20;99.90;;;;;;5032663;28;20456;-91
2021/10/17 08:35:54;;;;;;;180.70;170.80;;;9.60;99.90;;;;;;5032460;28;20449;-89
2021/10/17 08:38:21;;;;;;;105.77;99.07;;;9.70;99.90;;;;;;5032273;28;20488;-89
2021/10/17 08:40:52;;;;;;;58.60;53.90;;;9.80;99.90;;;;;;5031452;28;20544;-90
2021/10/17 08:43:19;;;;;;;35.80;31.90;;;9.80;99.90;;;;;;5031570;28;20468;-91
2021/10/17 08:45:49;;;;;;;31.87;20.57;;;9.90;99.90;;;;;;5032498;28;20868;-89
2021/10/17 08:48:18;;;;;;;31.87;23.00;;;10.00;99.90;;;;;;5029131;28;20895;-86
2021/10/17 08:50:46;;;;;;;30.20;21.57;;;10.00;99.90;;;;;;5013381;28;20960;-85
2021/10/17 08:53:13;;;;;;;28.40;13.07;;;10.20;99.90;;;;;;5013436;28;20870;-89
2021/10/17 08:55:44;;;;;;;30.40;16.70;;;10.30;99.90;;;;;;5013244;28;20549;-90
2021/10/17 08:58:13;;;;;;;33.23;27.07;;;10.40;99.90;;;;;;5012363;28;20499;-87
2021/10/17 09:00:40;;;;;;;29.37;9.20;;;10.50;99.90;;;;;;5013795;28;20477;-86
2021/10/17 09:03:07;;;;;;;30.20;9.83;;;10.60;99.90;;;;;;4997111;28;20888;-88
2021/10/17 09:05:36;;;;;;;31.80;15.77;;;10.60;99.60;;;;;;4993974;28;20458;-88
2021/10/17 09:08:04;;;;;;;30.80;13.40;;;10.80;99.90;;;;;;4993532;28;20462;-89
2021/10/17 09:10:33;;;;;;;33.30;19.40;;;11.00;99.90;;;;;;4993597;28;20462;-89
2021/10/17 09:13:10;;;;;;;30.27;10.73;;;11.00;98.10;;;;;;4992441;28;20541;-89
2021/10/17 09:15:38;;;;;;;29.13;6.77;;;11.20;98.10;;;;;;4993538;28;21037;-88
2021/10/17 09:18:11;;;;;;;26.43;7.97;;;11.10;95.70;;;;;;4993540;28;21099;-89
2021/10/17 09:20:52;;;;;;;20.80;14.53;;;11.40;96.60;;;;;;4993298;28;20554;-88
2021/10/17 09:23:36;;;;;;;25.17;15.63;;;11.50;94.50;;;;;;4993721;28;20462;-87
2021/10/17 09:26:12;;;;;;;19.97;14.07;;;12.10;93.90;;;;;;4950412;28;1262968;-88
2021/10/17 09:28:40;;;;;;;19.23;13.07;;;12.30;87.70;;;;;;4993043;28;20564;-89
2021/10/17 09:31:10;;;;;;;20.77;13.50;;;12.60;85.00;;;;;;4994077;28;20486;-86
2021/10/17 09:33:44;;;;;;;20.20;14.67;;;12.80;79.50;;;;;;4994108;28;20549;-88
2021/10/17 09:36:19;;;;;;;21.13;14.10;;;13.00;85.90;;;;;;4994198;28;20466;-89
2021/10/17 09:38:48;;;;;;;26.90;14.47;;;13.20;79.90;;;;;;4993874;28;20518;-89
2021/10/17 09:41:17;;;;;;;28.47;12.80;;;13.70;74.50;;;;;;4993980;28;20547;-88
2021/10/17 09:43:51;;;;;;;15.93;12.37;;;14.00;73.90;;;;;;4992572;28;21029;-88
2021/10/17 09:46:19;;;;;;;19.17;12.87;;;13.90;67.50;;;;;;4993892;28;20982;-88
2021/10/17 09:48:47;;;;;;;19.33;13.10;;;14.30;69.20;;;;;;4993873;28;20540;-89
2021/10/17 09:51:16;;;;;;;18.37;11.90;;;14.70;65.30;;;;;;4993576;28;20462;-88
2021/10/17 09:53:45;;;;;;;15.60;11.03;;;14.70;60.80;;;;;;4993946;28;20508;-89
2021/10/17 09:56:32;;;;;;;19.60;11.40;;;15.10;59.10;;;;;;4993601;28;20492;-88
2021/10/17 09:59:04;;;;;;;18.47;11.60;;;15.70;57.30;;;;;;4992265;28;20487;-89
2021/10/17 10:01:33;;;;;;;25.10;13.30;;;15.90;51.70;;;;;;4993616;28;20482;-88
2021/10/17 10:04:03;;;;;;;17.53;11.77;;;16.50;52.20;;;;;;4993614;28;20461;-89
2021/10/17 10:06:31;;;;;;;19.87;11.60;;;16.80;48.80;;;;;;4993488;28;20566;-89
2021/10/17 10:09:00;;;;;;;20.60;13.47;;;16.80;45.10;;;;;;4993572;28;20512;-88
2021/10/17 10:11:31;;;;;;;15.97;10.70;;;16.90;46.60;;;;;;4993772;28;20595;-89
2021/10/17 10:14:01;;;;;;;15.67;10.93;;;17.00;42.40;;;;;;4992228;28;20951;-89
2021/10/17 10:16:29;;;;;;;21.77;14.53;;;17.10;43.60;;;;;;4993446;28;20456;-89
2021/10/17 10:19:00;;;;;;;17.97;11.53;;;17.00;41.80;;;;;;4993448;28;21060;-87
2021/10/17 10:21:28;;;;;;;18.83;11.30;;;17.00;41.50;;;;;;4993562;28;20622;-89
2021/10/17 10:23:58;;;;;;;18.63;12.80;;;17.20;40.00;;;;;;4993417;28;20465;-87
2021/10/17 10:26:27;;;;;;;28.80;11.60;;;17.50;39.10;;;;;;4993558;28;20491;-88
2021/10/17 10:28:57;;;;;;;25.57;12.43;;;17.80;36.10;;;;;;4992106;28;20457;-89
2021/10/17 10:31:47;;;;;;;18.43;11.30;;;17.80;35.90;;;;;;4993564;28;20480;-89
2021/10/17 10:34:48;;;;;;;21.07;11.87;;;18.10;33.60;;;;;;4993565;28;20452;-89
2021/10/17 10:37:22;;;;;;;17.90;11.40;;;18.10;36.30;;;;;;4990178;28;20515;-88
2021/10/17 10:40:17;;;;;;;19.70;11.40;;;18.00;37.40;;;;;;4993262;28;20642;-88
2021/10/17 10:42:47;;;;;;;22.10;10.50;;;18.10;34.70;;;;;;4991915;28;20458;-90
2021/10/17 10:45:32;;;;;;;17.07;11.57;;;18.40;37.30;;;;;;4993247;28;20456;-88
2021/10/17 10:48:21;;;;;;;14.60;10.10;;;18.10;34.50;;;;;;4993427;28;20547;-89
2021/10/17 10:50:54;;;;;;;20.90;11.40;;;18.30;33.70;;;;;;4993133;28;20459;-88
2021/10/17 10:53:55;;;;;;;18.27;12.10;;;17.70;33.20;;;;;;4993155;28;20818;-89
2021/10/17 10:56:48;;;;;;;19.70;11.63;;;17.60;36.70;;;;;;4994295;28;20492;-89
2021/10/17 10:59:17;;;;;;;18.47;9.67;;;17.20;38.20;;;;;;4991724;28;20485;-89
2021/10/17 11:02:14;;;;;;;18.77;10.17;;;17.30;36.30;;;;;;4993270;28;20501;-88
2021/10/17 11:05:00;;;;;;;15.63;10.23;;;17.70;34.30;;;;;;4996628;28;20552;-90
2021/10/17 11:07:41;;;;;;;19.77;9.87;;;17.90;36.10;;;;;;4996200;28;20467;-89
2021/10/17 11:10:46;;;;;;;18.13;10.00;;;17.60;33.00;;;;;;4996678;28;20499;-90
2021/10/17 11:13:28;;;;;;;17.53;10.70;;;17.60;35.00;;;;;;4995313;28;20469;-88
2021/10/17 11:15:57;;;;;;;20.93;10.87;;;17.50;35.60;;;;;;4996764;28;20485;-88
2021/10/17 11:18:33;;;;;;;19.07;11.20;;;17.40;35.50;;;;;;4996562;28;20574;-88
2021/10/17 11:21:07;;;;;;;14.63;9.60;;;17.60;36.50;;;;;;4996379;28;20470;-87
2021/10/17 11:23:43;;;;;;;16.00;9.10;;;17.50;33.60;;;;;;4996578;28;20467;-89
2021/10/17 11:26:18;;;;;;;16.07;9.23;;;17.60;33.00;;;;;;4996293;28;20565;-89
2021/10/17 11:28:50;;;;;;;20.13;10.03;;;17.90;34.10;;;;;;4995123;28;20473;-87
2021/10/17 11:31:20;;;;;;;18.63;8.20;;;17.90;33.40;;;;;;4996375;28;20459;-87
2021/10/17 11:34:06;;;;;;;20.97;8.83;;;18.30;31.30;;;;;;4996313;28;20495;-88
2021/10/17 11:36:45;;;;;;;15.10;9.03;;;18.60;29.80;;;;;;4996611;28;20944;-89
2021/10/17 11:39:15;;;;;;;14.30;7.83;;;18.50;30.90;;;;;;4996211;28;20902;-86
2021/10/17 11:41:46;;;;;;;14.67;8.40;;;18.70;29.80;;;;;;4996420;28;20467;-86
2021/10/17 11:44:18;;;;;;;13.33;7.80;;;18.70;30.30;;;;;;4994851;28;20492;-84
2021/10/17 11:46:53;;;;;;;16.37;7.77;;;18.70;27.20;;;;;;4996217;28;20543;-84
2021/10/17 11:49:33;;;;;;;14.47;7.87;;;18.90;27.40;;;;;;4996083;28;20486;-84
2021/10/17 11:52:51;;;;;;;12.53;6.90;;;18.60;28.20;;;;;;4996029;28;20529;-88
2021/10/17 12:01:45;;;;;;;11.90;6.87;;;18.60;24.70;;;;;;4983825;28;20935;-88
2021/10/17 12:05:10;;;;;;;20.30;6.77;;;18.70;24.40;;;;;;4996045;28;20866;-87
2021/10/17 12:11:06;;;;;;;11.93;5.37;;;19.00;21.20;;;;;;4894219;29;20567;-87
2021/10/17 12:13:42;;;;;;;9.63;4.87;;;18.40;20.90;;;;;;4915495;29;20487;-88
2021/10/17 12:16:14;;;;;;;8.60;5.00;;;18.50;19.90;;;;;;4916582;29;20464;-89
2021/10/17 12:18:51;;;;;;;15.77;4.70;;;18.90;22.50;;;;;;4916455;29;20492;-89
2021/10/17 12:21:22;;;;;;;14.87;6.57;;;18.30;17.40;;;;;;4930873;28;20828;-89
2021/10/17 12:23:55;;;;;;;8.47;5.07;;;18.60;20.80;;;;;;4994672;28;20469;-88
2021/10/17 12:26:26;;;;;;;15.00;5.50;;;18.20;18.40;;;;;;4995352;28;20469;-88
2021/10/17 12:29:14;;;;;;;20.63;7.10;;;17.90;18.20;;;;;;4994071;28;20463;-90
2021/10/17 12:31:52;;;;;;;8.80;4.67;;;17.70;21.70;;;;;;4995376;28;20481;-88
2021/10/17 12:34:39;;;;;;;10.80;4.67;;;17.30;21.80;;;;;;4995289;28;20501;-88
2021/10/17 12:37:07;;;;;;;6.43;3.00;;;17.50;18.80;;;;;;4995121;28;20545;-88
2021/10/17 12:39:36;;;;;;;10.93;3.73;;;17.30;19.80;;;;;;4995009;28;20868;-88
2021/10/17 12:42:04;;;;;;;10.17;3.93;;;17.30;20.60;;;;;;4995224;28;20891;-89
2021/10/17 12:44:45;;;;;;;9.60;3.83;;;17.40;17.90;;;;;;4993940;28;20455;-89